Time;durP1;ratioP1;P1;durP2;ratioP2;P2;SDS_P1;SDS_P2;PMS_P1;PMS_P2;Temp;Humidity;BMP_temperature;BMP_pressure;BME280_temperature;BME280_humidity;BME280_pressure;Samples;Min_cycle;Max_cycle;Signal;HPM_P1;HPM_P2
2022/12/06 00:02:09;;;;;;;39.47;21.52;;;;;;;1.24;78.07;101083.59;6091536;23;20026;-72
2022/12/06 00:04:35;;;;;;;36.03;20.92;;;;;;;1.11;77.94;101077.31;6091856;23;20093;-70
2022/12/06 00:07:02;;;;;;;37.30;20.60;;;;;;;1.15;78.36;101077.03;6092033;23;20026;-73
2022/12/06 00:09:30;;;;;;;37.83;20.48;;;;;;;1.31;77.51;101077.00;6089559;23;20029;-72
2022/12/06 00:11:58;;;;;;;36.22;20.13;;;;;;;1.19;77.56;101083.00;6090608;23;20026;-73
2022/12/06 00:14:26;;;;;;;35.78;19.35;;;;;;;1.31;77.21;101081.44;6091068;23;20451;-72
2022/12/06 00:16:53;;;;;;;32.78;18.25;;;;;;;1.44;76.70;101085.06;6066098;23;20060;-72
2022/12/06 00:19:22;;;;;;;30.95;18.95;;;;;;;1.43;76.49;101081.53;6092408;23;20025;-72
2022/12/06 00:21:48;;;;;;;32.00;17.42;;;;;;;1.41;76.17;101077.28;6092389;23;20381;-72
2022/12/06 00:24:17;;;;;;;32.78;18.52;;;;;;;1.55;75.97;101079.09;6092881;23;20023;-73
2022/12/06 00:26:46;;;;;;;33.08;18.42;;;;;;;1.49;75.75;101081.16;6090893;23;20026;-74
2022/12/06 00:29:15;;;;;;;36.60;19.08;;;;;;;1.48;76.29;101084.75;6092392;23;20028;-72
2022/12/06 00:31:42;;;;;;;33.42;18.25;;;;;;;1.46;75.82;101088.44;6090260;23;20037;-73
2022/12/06 00:34:09;;;;;;;32.65;18.27;;;;;;;1.47;75.53;101088.34;6093775;23;20026;-72
2022/12/06 00:36:38;;;;;;;33.13;19.45;;;;;;;1.28;77.17;101087.75;6092852;23;20032;-73
2022/12/06 00:39:07;;;;;;;34.65;18.85;;;;;;;1.29;76.71;101085.94;6092769;23;20046;-72
2022/12/06 00:41:34;;;;;;;34.53;19.25;;;;;;;1.33;76.56;101085.66;6092487;23;20026;-72
2022/12/06 00:44:01;;;;;;;32.50;18.85;;;;;;;1.43;76.15;101078.88;6092939;23;20030;-73
2022/12/06 00:46:29;;;;;;;33.10;18.92;;;;;;;1.63;75.59;101076.84;6091440;23;20098;-72
2022/12/06 00:48:58;;;;;;;33.65;19.08;;;;;;;1.54;75.62;101072.09;6092736;23;20041;-72
2022/12/06 00:51:27;;;;;;;35.60;19.25;;;;;;;1.56;75.58;101071.06;6092528;23;20022;-73
2022/12/06 00:53:54;;;;;;;36.53;19.88;;;;;;;1.47;75.55;101069.84;6091783;23;20079;-72
2022/12/06 00:56:21;;;;;;;32.05;19.02;;;;;;;1.33;75.64;101076.88;6092736;23;20105;-72
2022/12/06 00:58:47;;;;;;;29.27;18.65;;;;;;;1.18;76.28;101076.00;6092193;23;20032;-71
2022/12/06 01:01:18;;;;;;;31.05;18.35;;;;;;;1.42;75.58;101076.34;6093199;23;20137;-72
2022/12/06 01:03:46;;;;;;;29.35;18.67;;;;;;;1.56;75.13;101064.94;6091646;23;20356;-72
2022/12/06 01:06:14;;;;;;;30.02;18.80;;;;;;;1.42;75.39;101068.41;6092845;23;20070;-73
2022/12/06 01:08:41;;;;;;;30.98;18.20;;;;;;;1.39;75.34;101064.16;6093234;23;20022;-72
2022/12/06 01:11:09;;;;;;;31.55;18.88;;;;;;;1.14;76.09;101059.50;6091571;23;20029;-73
2022/12/06 01:13:36;;;;;;;33.97;18.60;;;;;;;1.43;75.16;101054.25;6091574;23;20022;-73
2022/12/06 01:16:07;;;;;;;30.35;18.70;;;;;;;1.31;75.66;101055.00;6092400;23;20085;-73
2022/12/06 01:18:34;;;;;;;29.98;18.77;;;;;;;1.25;75.77;101061.50;6092581;23;20113;-72
2022/12/06 01:21:05;;;;;;;32.58;19.25;;;;;;;1.29;75.41;101057.72;6092217;23;20027;-73
2022/12/06 01:23:32;;;;;;;31.48;18.88;;;;;;;1.27;75.57;101070.19;6092728;23;20030;-72
2022/12/06 01:25:59;;;;;;;31.42;18.60;;;;;;;1.02;75.91;101054.91;6092972;23;20363;-72
2022/12/06 01:28:25;;;;;;;33.25;18.20;;;;;;;1.11;75.76;101053.53;6092707;23;20022;-73
2022/12/06 01:30:52;;;;;;;38.17;19.63;;;;;;;1.10;76.05;101057.13;6092580;23;20352;-72
2022/12/06 01:33:18;;;;;;;33.88;19.27;;;;;;;1.24;75.78;101054.50;6091811;23;20018;-73
2022/12/06 01:35:45;;;;;;;30.58;18.20;;;;;;;1.07;75.97;101059.94;6092508;23;20023;-73
2022/12/06 01:38:11;;;;;;;30.50;17.67;;;;;;;1.05;75.69;101057.38;6093288;23;20026;-73
2022/12/06 01:40:40;;;;;;;33.25;18.80;;;;;;;1.16;75.59;101062.91;6093029;23;20042;-72
2022/12/06 01:43:28;;;;;;;30.75;17.80;;;;;;;1.01;75.72;101059.34;6092666;23;20452;-73
2022/12/06 01:45:57;;;;;;;29.25;17.73;;;;;;;0.90;76.31;101058.31;6091414;23;20022;-73
2022/12/06 01:48:25;;;;;;;31.98;19.02;;;;;;;0.84;76.08;101064.78;6092934;23;20089;-73
2022/12/06 01:50:55;;;;;;;30.95;18.25;;;;;;;1.19;75.38;101067.13;6092587;23;20023;-73
2022/12/06 01:53:23;;;;;;;33.53;18.10;;;;;;;1.20;74.47;101058.28;6092338;23;20026;-73
2022/12/06 01:55:52;;;;;;;34.22;18.55;;;;;;;1.27;74.95;101053.50;6074870;23;20107;-73
2022/12/06 01:58:23;;;;;;;28.60;17.20;;;;;;;1.30;74.57;101066.50;6121400;23;20332;-72
2022/12/06 02:00:50;;;;;;;;;;;;;;;1.18;74.85;101057.53;6121049;23;20041;-72
2022/12/06 02:03:21;;;;;;;29.55;16.42;;;;;;;1.23;74.94;101058.97;6123127;23;19917;-73
2022/12/06 02:09:35;;;;;;;29.60;16.67;;;;;;;1.13;74.60;101057.81;6109371;23;20128;-74
2022/12/06 02:12:02;;;;;;;30.00;16.70;;;;;;;1.24;75.00;101055.38;6123855;23;20463;-73
2022/12/06 02:14:32;;;;;;;28.08;16.83;;;;;;;0.99;75.23;101048.06;6123290;23;20026;-73
2022/12/06 02:17:16;;;;;;;29.30;16.92;;;;;;;0.97;75.38;101047.28;6122389;23;20025;-73
2022/12/06 02:20:11;;;;;;;26.42;16.05;;;;;;;0.94;74.84;101042.16;6122054;23;20025;-73
2022/12/06 02:23:16;;;;;;;29.83;16.27;;;;;;;1.31;73.86;101029.41;6122964;23;20408;-73
2022/12/06 02:26:17;;;;;;;32.55;17.05;;;;;;;1.36;73.60;101032.63;6111987;23;20029;-73
2022/12/06 02:29:45;;;;;;;21.45;12.23;;;;;;;1.22;74.14;101027.31;6111558;23;20033;-72
2022/12/06 02:32:25;;;;;;;27.25;16.70;;;;;;;1.21;74.22;101031.75;6073691;23;20493;-73
2022/12/06 02:35:08;;;;;;;25.65;14.98;;;;;;;1.32;73.64;101025.81;6121563;23;20028;-72
2022/12/06 02:37:42;;;;;;;29.95;16.80;;;;;;;1.31;74.19;101024.13;6122946;23;20470;-73
2022/12/06 02:40:14;;;;;;;30.08;16.55;;;;;;;1.12;74.52;101027.00;6123183;23;20018;-73
2022/12/06 02:42:46;;;;;;;26.80;16.17;;;;;;;1.26;74.13;101026.19;6124194;23;20044;-72
2022/12/06 02:45:20;;;;;;;29.20;16.80;;;;;;;0.91;75.03;101021.22;6122214;23;20022;-72
2022/12/06 02:47:48;;;;;;;28.73;16.58;;;;;;;0.79;75.06;101021.94;6122782;23;20105;-73
2022/12/06 02:50:27;;;;;;;27.20;16.50;;;;;;;0.65;75.52;101017.47;6123350;23;20024;-72
2022/12/06 02:52:58;;;;;;;28.77;16.63;;;;;;;0.69;75.03;101016.34;6122331;23;20033;-72
2022/12/06 02:55:26;;;;;;;27.90;17.02;;;;;;;0.76;74.59;101011.56;6123044;23;20024;-72
2022/12/06 02:57:55;;;;;;;29.40;17.20;;;;;;;0.63;74.65;101016.69;6123552;23;20355;-72
2022/12/06 03:00:34;;;;;;;30.73;17.45;;;;;;;0.48;76.20;101017.59;6122690;23;20073;-72
2022/12/06 03:03:38;;;;;;;32.78;18.35;;;;;;;0.56;76.00;101027.72;6096228;23;20363;-72
2022/12/06 03:06:20;;;;;;;33.90;17.73;;;;;;;0.64;75.42;101014.91;6093900;23;20022;-73
2022/12/06 03:09:04;;;;;;;31.25;17.80;;;;;;;0.61;75.32;101015.13;6094880;23;20033;-71
2022/12/06 03:11:48;;;;;;;32.33;17.83;;;;;;;0.73;74.74;101011.75;6093539;23;20040;-74
2022/12/06 03:14:22;;;;;;;38.30;18.48;;;;;;;0.92;74.27;101009.72;6117601;23;20022;-73
2022/12/06 03:17:04;;;;;;;36.42;17.92;;;;;;;0.83;74.12;101002.34;6093037;23;20022;-72
2022/12/06 03:19:35;;;;;;;33.25;17.67;;;;;;;0.70;75.02;100996.91;6093960;23;20022;-72
2022/12/06 03:22:15;;;;;;;34.20;18.25;;;;;;;0.69;74.85;100991.75;6092912;23;20019;-73
2022/12/06 03:24:43;;;;;;;30.63;16.98;;;;;;;0.63;75.29;100990.28;6092667;23;20439;-73
2022/12/06 03:27:14;;;;;;;29.73;17.42;;;;;;;0.79;75.18;100984.13;6093200;23;20023;-73
2022/12/06 03:29:46;;;;;;;35.47;18.70;;;;;;;0.67;74.71;100985.69;6080140;23;20025;-73
2022/12/06 03:32:16;;;;;;;36.60;18.27;;;;;;;0.94;74.50;100984.06;6092936;23;20026;-72
2022/12/06 03:34:47;;;;;;;34.53;18.02;;;;;;;0.87;74.68;100969.50;6093488;23;20107;-73
2022/12/06 03:37:20;;;;;;;35.85;17.55;;;;;;;0.88;74.81;100984.41;6093675;23;20022;-73
2022/12/06 03:40:05;;;;;;;34.45;18.20;;;;;;;0.82;74.34;100974.25;6092825;23;20172;-73
2022/12/06 03:42:32;;;;;;;36.13;19.08;;;;;;;0.66;74.86;100979.56;6092999;23;20018;-73
2022/12/06 03:44:59;;;;;;;34.83;19.25;;;;;;;0.88;74.51;100976.47;6093203;23;20029;-74
2022/12/06 03:47:36;;;;;;;39.97;20.23;;;;;;;0.87;74.65;100976.59;6093648;23;20463;-72
2022/12/06 03:50:12;;;;;;;37.10;19.67;;;;;;;0.84;75.09;100974.13;6093429;23;20432;-74
2022/12/06 03:52:39;;;;;;;39.05;19.98;;;;;;;0.79;74.77;100965.66;6092640;23;20022;-73
2022/12/06 03:55:06;;;;;;;35.50;20.13;;;;;;;0.60;75.60;100979.06;6092183;23;20101;-73
2022/12/06 03:57:33;;;;;;;43.90;20.80;;;;;;;0.74;75.37;100973.81;6093683;23;20443;-73
2022/12/06 04:00:00;;;;;;;44.45;21.23;;;;;;;0.84;74.90;100966.22;6093588;23;20018;-74
2022/12/06 04:02:27;;;;;;;39.20;21.23;;;;;;;1.03;74.61;100966.81;6092059;23;20019;-72
2022/12/06 04:04:53;;;;;;;45.72;22.52;;;;;;;0.96;74.29;100965.50;6093741;23;20029;-72
2022/12/06 04:07:20;;;;;;;44.03;22.60;;;;;;;0.95;74.93;100969.03;6123251;23;20342;-72
2022/12/06 04:10:01;;;;;;;47.53;22.90;;;;;;;0.99;74.67;100966.16;6122674;23;20018;-74
2022/12/06 04:15:16;;;;;;;42.53;22.75;;;;;;;1.14;74.00;100964.38;6121370;23;20332;-74
2022/12/06 04:23:02;;;;;;;45.25;21.83;;;;;;;0.77;74.99;100944.59;6122256;23;20443;-72
2022/12/06 04:23:17;;;;;;;38.63;19.77;;;;;;;0.97;74.48;100957.47;6121499;23;20030;-74
2022/12/06 04:25:44;;;;;;;38.03;20.20;;;;;;;0.76;74.82;100951.66;6121106;23;20033;-73
2022/12/06 04:39:17;;;;;;;31.63;17.77;;;;;;;0.96;74.27;100932.00;6122796;23;20025;-72
2022/12/06 04:44:32;;;;;;;25.55;14.43;;;;;;;0.68;74.62;100924.88;6120046;23;20022;-75
2022/12/06 04:46:59;;;;;;;27.08;13.77;;;;;;;0.74;74.17;100919.22;6121754;23;20041;-69
2022/12/06 04:49:25;;;;;;;27.88;14.50;;;;;;;0.83;74.09;100923.09;6121936;23;20048;-72
2022/12/06 04:51:53;;;;;;;26.85;13.93;;;;;;;0.55;74.57;100921.25;6122295;23;20018;-73
2022/12/06 04:54:21;;;;;;;20.92;12.48;;;;;;;0.45;75.00;100918.31;6118952;23;20025;-74
2022/12/06 04:56:47;;;;;;;21.73;11.88;;;;;;;0.75;74.09;100913.00;6121623;23;20359;-73
2022/12/06 04:59:14;;;;;;;26.42;12.98;;;;;;;0.79;74.14;100918.97;6122220;23;20450;-73
2022/12/06 05:01:40;;;;;;;21.35;11.75;;;;;;;0.74;73.92;100913.09;6121784;23;20387;-73
2022/12/06 05:04:07;;;;;;;21.30;11.30;;;;;;;0.82;74.08;100916.13;6122305;23;20026;-74
2022/12/06 05:06:34;;;;;;;20.35;11.15;;;;;;;0.80;73.94;100903.94;6122399;23;20026;-73
2022/12/06 05:09:02;;;;;;;24.23;12.32;;;;;;;0.90;73.56;100911.22;6121916;23;20435;-73
2022/12/06 05:11:28;;;;;;;25.55;11.68;;;;;;;0.80;73.78;100912.72;6124123;23;20033;-74
2022/12/06 05:13:55;;;;;;;23.10;12.10;;;;;;;0.70;73.93;100911.56;6122753;23;20097;-74
2022/12/06 05:16:21;;;;;;;21.95;11.52;;;;;;;0.65;74.37;100916.28;6121261;23;20033;-73
2022/12/06 05:18:48;;;;;;;19.63;10.88;;;;;;;0.67;74.65;100912.59;6122125;23;20030;-73
2022/12/06 05:21:18;;;;;;;19.42;11.57;;;;;;;0.82;73.96;100916.13;6120882;23;20089;-74
2022/12/06 05:23:45;;;;;;;16.75;10.52;;;;;;;0.73;73.96;100912.25;6121075;23;20159;-72
2022/12/06 05:26:17;;;;;;;20.05;10.63;;;;;;;0.62;74.13;100919.13;6122145;23;20049;-75
2022/12/06 05:28:46;;;;;;;21.25;11.73;;;;;;;0.65;74.61;100913.66;6109163;23;20458;-72
2022/12/06 05:31:13;;;;;;;17.92;11.20;;;;;;;0.55;74.17;100904.59;6120450;23;20013;-73
2022/12/06 05:33:40;;;;;;;16.67;10.23;;;;;;;0.48;74.58;100909.38;6120577;23;20022;-74
2022/12/06 05:36:15;;;;;;;17.50;10.43;;;;;;;0.74;74.35;100907.81;6121406;23;20315;-73
2022/12/06 05:38:41;;;;;;;21.35;10.88;;;;;;;0.75;74.28;100912.16;6123190;23;20034;-74
2022/12/06 05:41:15;;;;;;;20.95;10.75;;;;;;;0.83;73.29;100907.25;6123754;23;20010;-74
2022/12/06 05:43:42;;;;;;;18.65;10.80;;;;;;;0.64;74.23;100906.66;6123033;23;20069;-73
2022/12/06 05:46:08;;;;;;;14.82;9.75;;;;;;;0.41;74.71;100897.47;6123711;23;20026;-75
2022/12/06 05:48:35;;;;;;;18.15;10.48;;;;;;;0.54;74.84;100914.28;6122605;23;20028;-74
2022/12/06 05:51:02;;;;;;;15.18;9.65;;;;;;;0.45;74.42;100907.75;6123626;23;20029;-73
2022/12/06 05:53:29;;;;;;;16.30;9.23;;;;;;;0.56;73.96;100903.63;6123643;23;20026;-73
2022/12/06 05:55:56;;;;;;;16.17;9.32;;;;;;;0.36;74.43;100902.16;6094730;23;20029;-72
2022/12/06 05:58:23;;;;;;;13.57;9.10;;;;;;;0.82;73.61;100913.50;6094518;23;20046;-72
2022/12/06 06:00:50;;;;;;;16.88;9.57;;;;;;;0.67;73.44;100909.97;6075172;23;20026;-73
2022/12/06 06:03:17;;;;;;;14.52;9.50;;;;;;;0.64;73.92;100901.38;6072061;23;20022;-73
2022/12/06 06:05:49;;;;;;;16.13;8.95;;;;;;;0.61;73.79;100904.22;6123352;23;20030;-74
2022/12/06 06:08:17;;;;;;;15.10;9.55;;;;;;;0.68;73.36;100910.84;6123482;23;20022;-74
2022/12/06 06:10:43;;;;;;;14.75;9.65;;;;;;;0.88;72.79;100915.72;6123719;23;20036;-73
2022/12/06 06:13:10;;;;;;;14.73;9.63;;;;;;;0.71;73.05;100907.97;6123563;23;20028;-73
2022/12/06 06:15:37;;;;;;;14.25;9.40;;;;;;;0.63;73.80;100911.09;6123595;23;20033;-74
2022/12/06 06:18:04;;;;;;;15.90;10.35;;;;;;;0.47;74.08;100900.59;6122529;23;20024;-73
2022/12/06 06:20:31;;;;;;;16.73;9.85;;;;;;;0.83;73.11;100904.63;6123877;23;20036;-70
2022/12/06 06:22:57;;;;;;;17.08;10.35;;;;;;;0.78;73.34;100906.69;6122984;23;20025;-74
2022/12/06 06:25:24;;;;;;;15.05;9.10;;;;;;;0.84;73.12;100903.66;6123418;23;20022;-75
2022/12/06 06:27:50;;;;;;;15.27;8.98;;;;;;;0.77;73.04;100904.97;6124089;23;20025;-74
2022/12/06 06:30:17;;;;;;;16.98;10.90;;;;;;;0.71;73.76;100907.97;6123569;23;20022;-76
2022/12/06 06:32:44;;;;;;;17.23;9.35;;;;;;;0.61;73.74;100906.88;6121235;23;20014;-76
2022/12/06 06:35:11;;;;;;;16.10;9.13;;;;;;;0.53;73.81;100913.41;6119543;23;20351;-76
2022/12/06 06:37:37;;;;;;;14.98;9.63;;;;;;;0.72;73.38;100915.84;6122903;23;20088;-76
2022/12/06 06:40:04;;;;;;;16.30;10.10;;;;;;;0.81;73.18;100919.69;6121438;23;20140;-76
2022/12/06 06:42:31;;;;;;;13.38;9.15;;;;;;;0.75;73.17;100925.38;6122423;23;20339;-75
2022/12/06 06:44:58;;;;;;;16.42;9.32;;;;;;;0.74;73.31;100923.66;6124041;23;20022;-76
2022/12/06 06:47:24;;;;;;;22.73;10.38;;;;;;;0.81;73.13;100918.84;6122705;23;20328;-76
2022/12/06 06:49:51;;;;;;;16.48;10.18;;;;;;;0.77;73.27;100916.38;6122852;23;20037;-76
2022/12/06 06:52:18;;;;;;;16.05;10.00;;;;;;;0.60;73.62;100913.91;6118121;23;20029;-76
2022/12/06 06:54:45;;;;;;;15.18;10.05;;;;;;;0.49;73.58;100913.69;6122595;23;20022;-75
2022/12/06 06:57:12;;;;;;;18.10;10.82;;;;;;;0.92;72.77;100916.44;6122351;23;20028;-76
2022/12/06 06:59:44;;;;;;;;;;;;;;;0.60;73.45;100918.34;6123847;23;20032;-76
2022/12/06 07:02:12;;;;;;;15.80;10.48;;;;;;;0.85;73.13;100910.66;6123594;23;20402;-76
2022/12/06 07:04:39;;;;;;;17.00;10.43;;;;;;;0.95;72.36;100911.81;6121951;23;20366;-76
2022/12/06 07:07:06;;;;;;;17.60;10.73;;;;;;;1.02;72.12;100917.53;6121928;23;20105;-76
2022/12/06 07:09:37;;;;;;;18.63;12.38;;;;;;;0.90;72.44;100913.03;6123247;23;20022;-76
2022/12/06 07:12:04;;;;;;;19.20;11.60;;;;;;;0.85;72.91;100917.72;6122572;23;20323;-76
2022/12/06 07:14:30;;;;;;;21.42;12.18;;;;;;;1.00;72.57;100906.22;6117165;23;20092;-75
2022/12/06 07:16:57;;;;;;;17.77;11.73;;;;;;;1.01;72.47;100910.56;6123886;23;20093;-76
2022/12/06 07:19:24;;;;;;;20.88;11.68;;;;;;;0.71;73.24;100921.19;6122744;23;20029;-76
2022/12/06 07:21:50;;;;;;;19.60;11.30;;;;;;;0.89;72.67;100914.81;6123055;23;20030;-76
2022/12/06 07:24:17;;;;;;;18.58;12.65;;;;;;;0.93;72.47;100924.25;6122840;23;20354;-76
2022/12/06 07:26:43;;;;;;;19.20;12.18;;;;;;;0.74;72.99;100923.66;6120432;23;20414;-75
2022/12/06 07:29:10;;;;;;;17.77;11.38;;;;;;;0.94;72.53;100919.81;6122932;23;20032;-76
2022/12/06 07:31:39;;;;;;;17.58;11.57;;;;;;;0.92;72.77;100917.28;6122755;23;20080;-76
2022/12/06 07:34:05;;;;;;;22.38;12.07;;;;;;;0.65;73.29;100913.66;6122470;23;20100;-76
2022/12/06 07:36:32;;;;;;;16.40;11.07;;;;;;;0.67;73.46;100922.31;6122070;23;20096;-75
2022/12/06 07:38:59;;;;;;;18.17;10.77;;;;;;;0.90;72.23;100926.22;6123529;23;20089;-76
2022/12/06 07:47:01;;;;;;;16.52;10.38;;;;;;;0.89;72.90;100925.38;6121132;23;20339;-76
2022/12/06 07:49:28;;;;;;;18.83;10.20;;;;;;;0.84;72.51;100922.16;6110378;23;20025;-76
2022/12/06 07:51:55;;;;;;;15.65;8.90;;;;;;;0.75;72.97;100923.56;6122278;23;20462;-75
2022/12/06 07:54:23;;;;;;;15.25;9.30;;;;;;;0.91;72.51;100926.13;6118844;23;20105;-76
2022/12/06 07:56:49;;;;;;;14.20;9.52;;;;;;;0.77;72.83;100918.19;6123145;23;20026;-76
2022/12/06 07:59:16;;;;;;;15.98;10.13;;;;;;;0.97;72.47;100925.75;6117900;23;20022;-76
2022/12/06 08:01:43;;;;;;;16.40;9.65;;;;;;;0.91;72.34;100928.75;6119934;23;20018;-76
2022/12/06 08:04:10;;;;;;;17.88;9.57;;;;;;;0.97;72.53;100920.47;6119275;23;20077;-77
2022/12/06 08:06:38;;;;;;;18.42;9.65;;;;;;;1.09;71.75;100920.66;6121291;23;20403;-76
2022/12/06 08:09:06;;;;;;;16.88;9.80;;;;;;;0.80;72.53;100918.00;6114319;23;20100;-75
2022/12/06 08:11:33;;;;;;;15.82;9.27;;;;;;;0.83;72.78;100923.09;6120903;23;20018;-73
2022/12/06 08:13:59;;;;;;;13.65;8.85;;;;;;;0.98;72.73;100930.09;6113461;23;20022;-76
2022/12/06 08:16:26;;;;;;;17.02;10.05;;;;;;;0.98;72.56;100924.81;6121230;23;20018;-76
2022/12/06 08:18:54;;;;;;;15.18;9.57;;;;;;;0.98;72.85;100927.44;6121487;23;20032;-76
2022/12/06 08:21:20;;;;;;;12.40;7.97;;;;;;;1.09;72.42;100923.28;6119503;23;20053;-77
2022/12/06 08:23:47;;;;;;;12.43;7.82;;;;;;;0.91;72.53;100928.75;6119919;23;20018;-76
2022/12/06 08:26:15;;;;;;;12.27;8.50;;;;;;;0.91;73.19;100931.41;6119909;23;20022;-77
2022/12/06 08:28:42;;;;;;;15.05;8.65;;;;;;;0.96;72.45;100926.72;6121663;23;20426;-76
2022/12/06 08:31:18;;;;;;;12.82;8.38;;;;;;;0.96;72.65;100921.41;6122701;23;20026;-76
2022/12/06 08:33:45;;;;;;;13.18;7.65;;;;;;;1.05;72.81;100927.06;6120140;23;20101;-76
2022/12/06 08:36:18;;;;;;;13.48;8.32;;;;;;;0.96;71.94;100924.06;6120760;23;20021;-76
2022/12/06 08:38:46;;;;;;;14.27;8.23;;;;;;;0.98;72.65;100924.81;6121309;23;20086;-76
2022/12/06 08:44:00;;;;;;;20.50;8.55;;;;;;;1.11;71.96;100916.13;6117875;23;20021;-74
2022/12/06 08:46:28;;;;;;;13.60;8.65;;;;;;;0.88;73.59;100930.75;6119542;23;20092;-75
2022/12/06 08:48:55;;;;;;;17.02;8.75;;;;;;;0.95;72.89;100924.13;6120405;23;20026;-74
2022/12/06 08:51:22;;;;;;;14.20;8.25;;;;;;;1.11;72.38;100922.28;6119260;23;20351;-75
2022/12/06 08:53:54;;;;;;;16.83;8.70;;;;;;;1.12;71.84;100918.69;6117043;23;20076;-75
2022/12/06 08:56:22;;;;;;;13.82;8.50;;;;;;;1.12;72.05;100921.31;6120539;23;20363;-75
2022/12/06 08:58:49;;;;;;;16.60;9.40;;;;;;;1.21;71.79;100918.13;6119848;23;20049;-75
2022/12/06 09:01:18;;;;;;;14.98;8.60;;;;;;;1.25;72.04;100921.41;6119599;23;20037;-75
2022/12/06 09:03:45;;;;;;;14.10;8.75;;;;;;;1.06;72.58;100926.13;6119024;23;20022;-75
2022/12/06 09:06:12;;;;;;;14.00;8.40;;;;;;;1.02;72.87;100922.81;6118311;23;20073;-75
2022/12/06 09:08:39;;;;;;;14.57;7.93;;;;;;;1.24;72.26;100920.56;6119026;23;20017;-74
2022/12/06 09:11:07;;;;;;;12.07;8.55;;;;;;;1.27;71.77;100916.91;6120246;23;20096;-74
2022/12/06 09:13:35;;;;;;;12.27;8.35;;;;;;;1.42;71.23;100918.56;6120450;23;20048;-74
2022/12/06 09:16:22;;;;;;;14.70;8.55;;;;;;;1.32;71.81;100920.09;6121922;23;20029;-75
2022/12/06 09:18:53;;;;;;;14.18;9.60;;;;;;;1.37;71.43;100923.31;6090467;23;20026;-75
2022/12/06 09:21:23;;;;;;;12.75;7.85;;;;;;;1.27;71.84;100921.34;6091265;23;20042;-76
2022/12/06 09:23:54;;;;;;;10.60;7.13;;;;;;;1.07;71.95;100912.00;6089860;23;20025;-74
2022/12/06 09:26:21;;;;;;;12.43;7.60;;;;;;;1.13;72.58;100911.63;6089266;23;20286;-75
2022/12/06 09:28:49;;;;;;;12.32;7.85;;;;;;;1.21;72.12;100911.97;6090111;23;20029;-76
2022/12/06 09:31:17;;;;;;;11.02;6.80;;;;;;;0.98;72.15;100905.47;6089614;23;20021;-75
2022/12/06 09:33:45;;;;;;;12.02;7.78;;;;;;;1.25;72.07;100916.13;6090190;23;20343;-74
2022/12/06 09:36:18;;;;;;;17.88;6.57;;;;;;;1.30;72.35;100911.44;6091108;23;20039;-74
2022/12/06 09:38:50;;;;;;;14.55;6.38;;;;;;;1.15;72.62;100907.06;6089282;23;20356;-75
2022/12/06 09:41:29;;;;;;;12.80;6.55;;;;;;;1.42;71.35;100905.34;6089712;23;20478;-75
2022/12/06 09:44:09;;;;;;;9.88;5.75;;;;;;;1.37;71.24;100906.56;6090456;23;20026;-75
2022/12/06 09:47:15;;;;;;;11.00;6.93;;;;;;;1.26;71.72;100904.59;6090865;23;20305;-73
2022/12/06 09:49:47;;;;;;;9.52;5.53;;;;;;;1.37;70.94;100902.16;6058907;23;20475;-75
2022/12/06 09:52:46;;;;;;;10.60;5.38;;;;;;;1.25;71.53;100900.28;6117974;23;20097;-75
2022/12/06 09:55:34;;;;;;;8.38;5.55;;;;;;;1.22;71.31;100897.81;6121108;23;20026;-74
2022/12/06 09:58:19;;;;;;;9.15;5.10;;;;;;;1.29;71.58;100901.78;6087291;23;20021;-75
2022/12/06 10:00:52;;;;;;;9.30;4.97;;;;;;;1.25;71.69;100890.53;6089721;23;20058;-74
2022/12/06 10:03:34;;;;;;;8.05;4.78;;;;;;;1.12;71.59;100888.75;6089890;23;20052;-75
2022/12/06 10:06:02;;;;;;;;;;;;;;;1.12;71.77;100886.13;6089302;23;20101;-76
2022/12/06 10:08:50;;;;;;;7.45;4.45;;;;;;;1.33;71.05;100891.84;6090894;23;19924;-75
2022/12/06 10:11:30;;;;;;;9.48;5.65;;;;;;;1.34;71.15;100885.66;6120905;23;20022;-76
2022/12/06 10:14:25;;;;;;;10.70;5.28;;;;;;;1.28;71.34;100884.22;6117013;23;20024;-75
2022/12/06 10:17:24;;;;;;;9.35;5.22;;;;;;;1.36;71.49;100881.94;6117284;23;20104;-76
2022/12/06 10:20:28;;;;;;;11.68;6.07;;;;;;;1.18;72.00;100878.66;6117571;23;20026;-76
2022/12/06 10:23:36;;;;;;;10.70;5.25;;;;;;;1.10;72.46;100877.47;6116668;23;20053;-75
2022/12/06 10:26:28;;;;;;;11.65;6.05;;;;;;;0.77;73.05;100878.56;5974218;23;20024;-75
2022/12/06 10:29:13;;;;;;;8.13;5.30;;;;;;;0.93;73.36;100871.41;5973272;23;20028;-75
2022/12/06 10:31:59;;;;;;;11.00;5.38;;;;;;;0.98;73.03;100873.75;5972928;23;20332;-76
2022/12/06 10:34:57;;;;;;;17.33;9.65;;;;;;;1.08;72.91;100858.19;5975553;23;20036;-75
2022/12/06 10:37:45;;;;;;;11.00;6.53;;;;;;;0.91;73.10;100861.88;5975647;23;20031;-76
2022/12/06 10:40:20;;;;;;;10.27;6.35;;;;;;;1.02;73.53;100859.41;5969940;23;20024;-75
2022/12/06 10:42:54;;;;;;;12.38;6.15;;;;;;;1.16;72.79;100864.72;5973594;23;20024;-75
2022/12/06 10:48:20;;;;;;;9.25;5.65;;;;;;;1.30;72.31;100858.56;5973390;23;20028;-75
2022/12/06 10:50:54;;;;;;;11.05;5.45;;;;;;;1.59;71.82;100850.56;5974518;23;20032;-75
2022/12/06 10:53:27;;;;;;;9.60;5.95;;;;;;;1.53;71.45;100853.59;5962128;23;20029;-75
2022/12/06 10:56:00;;;;;;;12.13;6.20;;;;;;;1.44;71.82;100858.53;5976307;23;20358;-75
2022/12/06 10:59:22;;;;;;;21.05;6.20;;;;;;;1.35;72.90;100845.88;5977229;23;20036;-75
2022/12/06 11:01:51;;;;;;;8.98;5.07;;;;;;;1.37;72.36;100854.59;5945486;24;20100;-75
2022/12/06 11:04:25;;;;;;;9.00;5.10;;;;;;;1.49;71.75;100850.28;5948146;24;20042;-75
2022/12/06 11:06:57;;;;;;;8.57;4.88;;;;;;;1.43;71.91;100856.81;5945526;24;20029;-76
2022/12/06 11:09:39;;;;;;;9.02;4.72;;;;;;;1.41;71.63;100845.50;5947440;23;20091;-75
2022/12/06 11:12:32;;;;;;;;;;;;;;;1.44;71.77;100849.75;5974318;23;20024;-75
2022/12/06 11:15:14;;;;;;;9.65;4.53;;;;;;;1.41;72.04;100842.88;5945388;23;19919;-75
2022/12/06 11:17:46;;;;;;;12.18;5.53;;;;;;;1.34;71.79;100838.06;5929151;24;20477;-75
2022/12/06 11:20:28;;;;;;;10.52;6.07;;;;;;;1.35;71.80;100835.31;5947000;24;20024;-75
2022/12/06 11:23:05;;;;;;;14.13;6.38;;;;;;;1.39;72.42;100841.25;5945822;24;20034;-74
2022/12/06 11:25:42;;;;;;;9.05;5.72;;;;;;;1.22;72.86;100839.69;5975506;23;20099;-75
2022/12/06 11:28:23;;;;;;;10.35;6.43;;;;;;;1.12;73.51;100830.63;5976521;23;20032;-75
2022/12/06 11:30:53;;;;;;;11.90;6.75;;;;;;;1.34;71.88;100836.28;5972544;23;20034;-75
2022/12/06 11:33:24;;;;;;;13.20;7.28;;;;;;;1.48;71.76;100825.66;5975211;23;20028;-76
2022/12/06 11:35:51;;;;;;;13.25;7.65;;;;;;;1.37;72.29;100825.50;6028063;23;20109;-75
2022/12/06 11:38:18;;;;;;;14.93;8.15;;;;;;;1.29;72.30;100833.06;6063422;23;20025;-76
2022/12/06 11:40:49;;;;;;;14.70;8.57;;;;;;;1.34;71.98;100823.06;6061600;23;20106;-75
2022/12/06 11:43:26;;;;;;;10.90;5.88;;;;;;;1.60;71.84;100823.16;6061568;23;20022;-76
2022/12/06 11:45:55;;;;;;;13.73;8.05;;;;;;;1.44;72.22;100816.22;6062400;23;20511;-76
2022/12/06 11:48:25;;;;;;;13.90;7.97;;;;;;;1.39;72.31;100820.94;6063498;23;20094;-76
2022/12/06 11:50:52;;;;;;;25.73;8.48;;;;;;;1.32;72.32;100813.53;6062226;23;20102;-76
2022/12/06 11:53:29;;;;;;;14.07;8.52;;;;;;;1.54;71.63;100812.97;6062021;23;20090;-76
2022/12/06 11:56:02;;;;;;;16.10;9.35;;;;;;;1.40;71.58;100809.44;6063420;23;20109;-76
2022/12/06 11:58:41;;;;;;;16.60;8.45;;;;;;;1.11;72.81;100807.81;6059792;23;20106;-75
2022/12/06 12:01:13;;;;;;;15.13;8.98;;;;;;;1.04;73.31;100811.78;6079612;23;20022;-75
2022/12/06 12:03:42;;;;;;;16.55;7.90;;;;;;;1.12;72.48;100806.84;6093446;23;20041;-76
2022/12/06 12:06:20;;;;;;;16.10;9.63;;;;;;;1.19;72.40;100808.16;6120430;23;20355;-75
2022/12/06 12:08:57;;;;;;;12.73;8.05;;;;;;;1.29;71.92;100797.84;6119336;23;20026;-75
2022/12/06 12:11:26;;;;;;;13.82;7.90;;;;;;;1.47;71.32;100799.31;6121888;23;20018;-76
2022/12/06 12:13:58;;;;;;;15.23;7.47;;;;;;;1.43;71.60;100800.44;6118634;23;20049;-75
2022/12/06 12:16:36;;;;;;;16.42;8.20;;;;;;;1.42;71.19;100794.31;6121236;23;20022;-76
2022/12/06 12:19:20;;;;;;;14.88;9.10;;;;;;;1.25;72.04;100792.75;6120860;23;20037;-76